sensor_id;sensor_type;location;lat;lon;timestamp;pressure;altitude;pressure_sealevel;temperature;humidity
44297;BME280;51842;47.450;8.654;2023-04-22T00:02:11;94955.72;;;5.74;100.00
44297;BME280;51842;47.450;8.654;2023-04-22T00:04:42;94949.88;;;5.72;100.00
44297;BME280;51842;47.450;8.654;2023-04-22T00:07:08;94952.47;;;5.67;100.00
44297;BME280;51842;47.450;8.654;2023-04-22T00:09:34;94947.44;;;5.66;100.00
44297;BME280;51842;47.450;8.654;2023-04-22T00:12:00;94947.03;;;5.52;100.00
44297;BME280;51842;47.450;8.654;2023-04-22T00:14:26;94940.94;;;5.29;100.00
44297;BME280;51842;47.450;8.654;2023-04-22T00:16:52;94933.09;;;5.34;100.00
44297;BME280;51842;47.450;8.654;2023-04-22T00:19:18;94932.72;;;5.26;100.00
44297;BME280;51842;47.450;8.654;2023-04-22T00:21:44;94936.91;;;5.22;100.00
44297;BME280;51842;47.450;8.654;2023-04-22T00:24:10;94928.69;;;5.18;100.00
44297;BME280;51842;47.450;8.654;2023-04-22T00:26:35;94925.56;;;5.21;100.00
44297;BME280;51842;47.450;8.654;2023-04-22T00:29:01;94926.59;;;5.20;100.00
44297;BME280;51842;47.450;8.654;2023-04-22T00:31:27;94921.81;;;5.17;100.00
44297;BME280;51842;47.450;8.654;2023-04-22T00:33:52;94920.69;;;5.13;100.00
44297;BME280;51842;47.450;8.654;2023-04-22T00:36:18;94916.47;;;5.12;100.00
44297;BME280;51842;47.450;8.654;2023-04-22T00:38:48;94917.84;;;5.20;100.00
44297;BME280;51842;47.450;8.654;2023-04-22T00:41:17;94911.28;;;5.22;100.00
44297;BME280;51842;47.450;8.654;2023-04-22T00:43:43;94908.91;;;5.21;100.00
44297;BME280;51842;47.450;8.654;2023-04-22T00:46:09;94911.06;;;5.24;100.00
44297;BME280;51842;47.450;8.654;2023-04-22T00:48:37;94913.13;;;5.22;100.00
44297;BME280;51842;47.450;8.654;2023-04-22T00:51:03;94919.72;;;5.19;100.00
44297;BME280;51842;47.450;8.654;2023-04-22T00:53:29;94917.56;;;5.16;100.00
44297;BME280;51842;47.450;8.654;2023-04-22T00:55:55;94925.78;;;5.20;100.00
44297;BME280;51842;47.450;8.654;2023-04-22T00:58:22;94922.91;;;5.21;100.00
44297;BME280;51842;47.450;8.654;2023-04-22T01:00:50;94928.22;;;5.26;100.00
44297;BME280;51842;47.450;8.654;2023-04-22T01:03:17;94921.47;;;5.36;100.00
44297;BME280;51842;47.450;8.654;2023-04-22T01:05:45;94926.31;;;5.44;100.00
44297;BME280;51842;47.450;8.654;2023-04-22T01:08:13;94919.19;;;5.44;100.00
44297;BME280;51842;47.450;8.654;2023-04-22T01:10:41;94920.97;;;5.39;100.00
44297;BME280;51842;47.450;8.654;2023-04-22T01:13:07;94922.78;;;5.33;100.00
44297;BME280;51842;47.450;8.654;2023-04-22T01:15:33;94921.13;;;5.27;100.00
44297;BME280;51842;47.450;8.654;2023-04-22T01:17:59;94920.84;;;5.23;100.00
44297;BME280;51842;47.450;8.654;2023-04-22T01:20:29;94930.56;;;5.23;100.00
44297;BME280;51842;47.450;8.654;2023-04-22T01:22:56;94931.81;;;5.15;100.00
44297;BME280;51842;47.450;8.654;2023-04-22T01:25:25;94934.38;;;5.10;100.00
44297;BME280;51842;47.450;8.654;2023-04-22T01:27:52;94932.22;;;5.07;100.00
44297;BME280;51842;47.450;8.654;2023-04-22T01:30:18;94934.00;;;5.01;100.00
44297;BME280;51842;47.450;8.654;2023-04-22T01:32:45;94933.09;;;4.91;100.00
44297;BME280;51842;47.450;8.654;2023-04-22T01:35:11;94926.22;;;4.90;100.00
44297;BME280;51842;47.450;8.654;2023-04-22T01:37:38;94926.44;;;4.88;100.00
44297;BME280;51842;47.450;8.654;2023-04-22T01:40:05;94926.72;;;4.86;100.00
44297;BME280;51842;47.450;8.654;2023-04-22T01:42:32;94917.66;;;4.82;100.00
44297;BME280;51842;47.450;8.654;2023-04-22T01:44:58;94911.59;;;4.82;100.00
44297;BME280;51842;47.450;8.654;2023-04-22T01:47:24;94908.16;;;4.81;100.00
44297;BME280;51842;47.450;8.654;2023-04-22T01:49:51;94909.69;;;4.77;100.00
44297;BME280;51842;47.450;8.654;2023-04-22T01:52:17;94917.31;;;4.74;100.00
44297;BME280;51842;47.450;8.654;2023-04-22T01:54:43;94909.63;;;4.72;100.00
44297;BME280;51842;47.450;8.654;2023-04-22T01:57:11;94914.38;;;4.70;100.00
44297;BME280;51842;47.450;8.654;2023-04-22T01:59:39;94914.84;;;4.67;100.00
44297;BME280;51842;47.450;8.654;2023-04-22T02:02:05;94912.69;;;4.64;100.00
44297;BME280;51842;47.450;8.654;2023-04-22T02:04:31;94920.84;;;4.62;100.00
44297;BME280;51842;47.450;8.654;2023-04-22T02:06:56;94924.53;;;4.61;100.00
44297;BME280;51842;47.450;8.654;2023-04-22T02:09:22;94930.53;;;4.57;100.00
44297;BME280;51842;47.450;8.654;2023-04-22T02:11:48;94933.72;;;4.59;100.00
44297;BME280;51842;47.450;8.654;2023-04-22T02:14:14;94925.16;;;4.69;100.00
44297;BME280;51842;47.450;8.654;2023-04-22T02:16:40;94928.56;;;4.69;100.00
44297;BME280;51842;47.450;8.654;2023-04-22T02:19:07;94925.06;;;4.63;100.00
44297;BME280;51842;47.450;8.654;2023-04-22T02:21:33;94935.00;;;4.56;100.00
44297;BME280;51842;47.450;8.654;2023-04-22T02:23:59;94928.06;;;4.50;100.00
44297;BME280;51842;47.450;8.654;2023-04-22T02:26:25;94933.81;;;4.47;100.00
44297;BME280;51842;47.450;8.654;2023-04-22T02:28:54;94932.22;;;4.46;100.00
44297;BME280;51842;47.450;8.654;2023-04-22T02:31:19;94928.22;;;4.44;100.00
44297;BME280;51842;47.450;8.654;2023-04-22T02:33:45;94930.84;;;4.44;100.00
44297;BME280;51842;47.450;8.654;2023-04-22T02:36:11;94934.59;;;4.48;100.00
44297;BME280;51842;47.450;8.654;2023-04-22T02:38:37;94930.38;;;4.47;100.00
44297;BME280;51842;47.450;8.654;2023-04-22T02:41:03;94930.84;;;4.44;100.00
44297;BME280;51842;47.450;8.654;2023-04-22T02:43:29;94930.56;;;4.40;100.00
44297;BME280;51842;47.450;8.654;2023-04-22T02:45:55;94928.63;;;4.35;100.00
44297;BME280;51842;47.450;8.654;2023-04-22T02:48:20;94922.00;;;4.33;100.00
44297;BME280;51842;47.450;8.654;2023-04-22T02:50:46;94928.56;;;4.30;100.00
44297;BME280;51842;47.450;8.654;2023-04-22T02:53:12;94920.09;;;4.28;100.00
44297;BME280;51842;47.450;8.654;2023-04-22T02:55:40;94924.81;;;4.26;100.00
44297;BME280;51842;47.450;8.654;2023-04-22T02:58:07;94930.78;;;4.22;100.00
44297;BME280;51842;47.450;8.654;2023-04-22T03:00:34;94925.44;;;4.16;100.00
44297;BME280;51842;47.450;8.654;2023-04-22T03:02:59;94923.75;;;4.10;100.00
44297;BME280;51842;47.450;8.654;2023-04-22T03:05:25;94930.38;;;4.13;100.00
44297;BME280;51842;47.450;8.654;2023-04-22T03:07:52;94933.59;;;4.15;100.00
44297;BME280;51842;47.450;8.654;2023-04-22T03:10:18;94940.38;;;4.11;100.00
44297;BME280;51842;47.450;8.654;2023-04-22T03:12:44;94938.78;;;4.10;100.00
44297;BME280;51842;47.450;8.654;2023-04-22T03:15:10;94949.00;;;4.06;100.00
44297;BME280;51842;47.450;8.654;2023-04-22T03:17:36;94948.38;;;3.99;100.00
44297;BME280;51842;47.450;8.654;2023-04-22T03:20:02;94944.25;;;3.91;100.00
44297;BME280;51842;47.450;8.654;2023-04-22T03:22:28;94943.72;;;3.89;100.00
44297;BME280;51842;47.450;8.654;2023-04-22T03:24:54;94947.16;;;3.90;100.00
44297;BME280;51842;47.450;8.654;2023-04-22T03:27:20;94948.31;;;3.82;100.00
44297;BME280;51842;47.450;8.654;2023-04-22T03:29:46;94961.28;;;3.84;100.00
44297;BME280;51842;47.450;8.654;2023-04-22T03:32:11;94958.53;;;3.79;100.00
44297;BME280;51842;47.450;8.654;2023-04-22T03:34:37;94954.00;;;3.74;100.00
44297;BME280;51842;47.450;8.654;2023-04-22T03:37:03;94958.00;;;3.77;100.00
44297;BME280;51842;47.450;8.654;2023-04-22T03:39:28;94952.53;;;3.66;100.00
44297;BME280;51842;47.450;8.654;2023-04-22T03:41:54;94964.44;;;3.69;100.00
44297;BME280;51842;47.450;8.654;2023-04-22T03:44:20;94967.09;;;3.57;100.00
44297;BME280;51842;47.450;8.654;2023-04-22T03:46:46;94964.72;;;3.56;100.00
44297;BME280;51842;47.450;8.654;2023-04-22T03:49:11;94977.31;;;3.54;100.00
44297;BME280;51842;47.450;8.654;2023-04-22T03:51:38;94971.97;;;3.48;100.00
44297;BME280;51842;47.450;8.654;2023-04-22T03:54:03;94966.25;;;3.52;100.00
44297;BME280;51842;47.450;8.654;2023-04-22T03:56:29;94959.75;;;3.42;100.00
44297;BME280;51842;47.450;8.654;2023-04-22T03:58:57;94953.69;;;3.42;100.00
44297;BME280;51842;47.450;8.654;2023-04-22T04:01:23;94959.72;;;3.54;100.00
44297;BME280;51842;47.450;8.654;2023-04-22T04:03:49;94964.72;;;3.56;100.00
44297;BME280;51842;47.450;8.654;2023-04-22T04:06:14;94960.03;;;3.58;100.00
44297;BME280;51842;47.450;8.654;2023-04-22T04:08:40;94960.50;;;3.55;100.00
44297;BME280;51842;47.450;8.654;2023-04-22T04:11:08;94960.81;;;3.58;100.00
44297;BME280;51842;47.450;8.654;2023-04-22T04:13:34;94962.59;;;3.69;100.00
44297;BME280;51842;47.450;8.654;2023-04-22T04:15:59;94964.75;;;3.72;100.00
44297;BME280;51842;47.450;8.654;2023-04-22T04:18:26;94964.28;;;3.76;100.00
44297;BME280;51842;47.450;8.654;2023-04-22T04:20:54;94970.13;;;3.78;100.00
44297;BME280;51842;47.450;8.654;2023-04-22T04:23:20;94971.16;;;3.77;100.00
44297;BME280;51842;47.450;8.654;2023-04-22T04:25:46;94966.38;;;3.74;100.00
44297;BME280;51842;47.450;8.654;2023-04-22T04:28:13;94968.91;;;3.68;100.00
44297;BME280;51842;47.450;8.654;2023-04-22T04:30:38;94965.63;;;3.61;100.00
44297;BME280;51842;47.450;8.654;2023-04-22T04:33:06;94965.53;;;3.56;100.00
44297;BME280;51842;47.450;8.654;2023-04-22T04:35:35;94972.63;;;3.56;100.00
44297;BME280;51842;47.450;8.654;2023-04-22T04:38:03;94968.63;;;3.53;100.00
44297;BME280;51842;47.450;8.654;2023-04-22T04:40:30;94967.72;;;3.47;100.00
44297;BME280;51842;47.450;8.654;2023-04-22T04:42:56;94960.88;;;3.46;100.00
44297;BME280;51842;47.450;8.654;2023-04-22T04:45:23;94960.22;;;3.39;100.00
44297;BME280;51842;47.450;8.654;2023-04-22T04:47:49;94975.34;;;3.32;100.00
44297;BME280;51842;47.450;8.654;2023-04-22T04:50:19;94965.94;;;3.36;100.00
44297;BME280;51842;47.450;8.654;2023-04-22T04:52:48;94968.00;;;3.34;100.00
44297;BME280;51842;47.450;8.654;2023-04-22T04:55:15;94975.34;;;3.32;100.00
44297;BME280;51842;47.450;8.654;2023-04-22T04:57:45;94987.16;;;3.30;100.00
44297;BME280;51842;47.450;8.654;2023-04-22T05:00:11;94988.59;;;3.37;100.00
44297;BME280;51842;47.450;8.654;2023-04-22T05:02:39;94981.13;;;3.46;100.00
44297;BME280;51842;47.450;8.654;2023-04-22T05:05:06;94982.50;;;3.48;100.00
44297;BME280;51842;47.450;8.654;2023-04-22T05:07:32;94978.00;;;3.61;100.00
44297;BME280;51842;47.450;8.654;2023-04-22T05:09:59;94979.00;;;3.60;100.00
44297;BME280;51842;47.450;8.654;2023-04-22T05:12:25;94976.72;;;3.63;100.00
44297;BME280;51842;47.450;8.654;2023-04-22T05:14:51;94986.31;;;3.69;100.00
44297;BME280;51842;47.450;8.654;2023-04-22T05:17:18;94979.53;;;3.74;100.00
44297;BME280;51842;47.450;8.654;2023-04-22T05:19:44;94978.75;;;3.73;100.00
44297;BME280;51842;47.450;8.654;2023-04-22T05:22:10;94981.38;;;3.73;100.00
44297;BME280;51842;47.450;8.654;2023-04-22T05:24:35;94977.22;;;3.77;100.00
44297;BME280;51842;47.450;8.654;2023-04-22T05:27:02;94978.34;;;3.81;100.00
44297;BME280;51842;47.450;8.654;2023-04-22T05:29:28;94989.22;;;3.85;100.00
44297;BME280;51842;47.450;8.654;2023-04-22T05:31:54;95001.91;;;3.88;100.00
44297;BME280;51842;47.450;8.654;2023-04-22T05:34:19;95000.97;;;3.94;100.00
44297;BME280;51842;47.450;8.654;2023-04-22T05:36:45;95003.47;;;4.01;100.00
44297;BME280;51842;47.450;8.654;2023-04-22T05:39:11;94997.81;;;4.09;100.00
44297;BME280;51842;47.450;8.654;2023-04-22T05:41:37;95008.53;;;4.19;100.00
44297;BME280;51842;47.450;8.654;2023-04-22T05:44:03;95009.19;;;4.26;100.00
44297;BME280;51842;47.450;8.654;2023-04-22T05:46:29;95011.41;;;4.34;100.00
44297;BME280;51842;47.450;8.654;2023-04-22T05:48:55;95001.84;;;4.45;100.00
44297;BME280;51842;47.450;8.654;2023-04-22T05:51:21;95011.00;;;4.59;100.00
44297;BME280;51842;47.450;8.654;2023-04-22T05:53:48;95003.59;;;4.73;100.00
44297;BME280;51842;47.450;8.654;2023-04-22T05:56:14;95001.63;;;4.85;100.00
44297;BME280;51842;47.450;8.654;2023-04-22T05:58:40;95002.09;;;4.99;100.00
44297;BME280;51842;47.450;8.654;2023-04-22T06:01:08;95012.78;;;5.09;100.00
44297;BME280;51842;47.450;8.654;2023-04-22T06:03:33;95017.41;;;5.19;100.00
44297;BME280;51842;47.450;8.654;2023-04-22T06:05:59;95011.16;;;5.25;100.00
44297;BME280;51842;47.450;8.654;2023-04-22T06:08:26;95019.19;;;5.36;100.00
44297;BME280;51842;47.450;8.654;2023-04-22T06:10:51;95016.13;;;5.44;100.00
44297;BME280;51842;47.450;8.654;2023-04-22T06:13:17;95019.34;;;5.46;100.00
44297;BME280;51842;47.450;8.654;2023-04-22T06:15:43;95016.75;;;5.51;100.00
44297;BME280;51842;47.450;8.654;2023-04-22T06:18:08;95022.78;;;5.68;100.00
44297;BME280;51842;47.450;8.654;2023-04-22T06:20:35;95027.19;;;5.85;100.00
44297;BME280;51842;47.450;8.654;2023-04-22T06:23:01;95021.03;;;6.01;100.00
44297;BME280;51842;47.450;8.654;2023-04-22T06:25:31;95021.72;;;6.18;100.00
44297;BME280;51842;47.450;8.654;2023-04-22T06:27:58;95020.31;;;6.38;100.00
44297;BME280;51842;47.450;8.654;2023-04-22T06:30:25;95021.59;;;6.62;100.00
44297;BME280;51842;47.450;8.654;2023-04-22T06:32:51;95024.47;;;6.93;100.00
44297;BME280;51842;47.450;8.654;2023-04-22T06:35:20;95033.66;;;7.28;100.00
44297;BME280;51842;47.450;8.654;2023-04-22T06:37:50;95025.34;;;7.56;100.00
44297;BME280;51842;47.450;8.654;2023-04-22T06:40:16;95026.50;;;7.81;100.00
44297;BME280;51842;47.450;8.654;2023-04-22T06:42:41;95035.53;;;7.95;100.00
44297;BME280;51842;47.450;8.654;2023-04-22T06:45:07;95035.34;;;8.22;100.00
44297;BME280;51842;47.450;8.654;2023-04-22T06:47:38;95040.47;;;8.49;100.00
44297;BME280;51842;47.450;8.654;2023-04-22T06:50:09;95044.72;;;8.76;100.00
44297;BME280;51842;47.450;8.654;2023-04-22T06:52:35;95033.28;;;8.96;98.52
44297;BME280;51842;47.450;8.654;2023-04-22T06:55:01;95031.41;;;9.22;96.81
44297;BME280;51842;47.450;8.654;2023-04-22T06:57:30;95037.72;;;9.46;95.84
44297;BME280;51842;47.450;8.654;2023-04-22T06:59:56;95046.41;;;9.72;95.01
44297;BME280;51842;47.450;8.654;2023-04-22T07:02:22;95039.41;;;9.97;92.65
44297;BME280;51842;47.450;8.654;2023-04-22T07:04:47;95043.78;;;10.22;89.21
44297;BME280;51842;47.450;8.654;2023-04-22T07:07:13;95043.72;;;10.37;90.01
44297;BME280;51842;47.450;8.654;2023-04-22T07:09:39;95053.66;;;10.66;87.01
44297;BME280;51842;47.450;8.654;2023-04-22T07:12:05;95047.59;;;10.89;84.88
44297;BME280;51842;47.450;8.654;2023-04-22T07:14:31;95044.72;;;11.15;82.95
44297;BME280;51842;47.450;8.654;2023-04-22T07:16:58;95041.19;;;11.49;81.23
44297;BME280;51842;47.450;8.654;2023-04-22T07:19:24;95047.75;;;11.86;79.74
44297;BME280;51842;47.450;8.654;2023-04-22T07:21:51;95049.13;;;12.26;79.33
44297;BME280;51842;47.450;8.654;2023-04-22T07:24:17;95040.91;;;12.60;76.31
44297;BME280;51842;47.450;8.654;2023-04-22T07:26:44;95044.25;;;12.85;75.74
44297;BME280;51842;47.450;8.654;2023-04-22T07:29:10;95040.78;;;12.84;74.34
44297;BME280;51842;47.450;8.654;2023-04-22T07:31:38;95044.50;;;13.02;74.84
44297;BME280;51842;47.450;8.654;2023-04-22T07:34:04;95041.00;;;13.20;72.81
44297;BME280;51842;47.450;8.654;2023-04-22T07:36:29;95043.56;;;13.45;71.98
44297;BME280;51842;47.450;8.654;2023-04-22T07:38:57;95048.09;;;13.44;70.25
44297;BME280;51842;47.450;8.654;2023-04-22T07:41:23;95051.97;;;13.65;71.04
44297;BME280;51842;47.450;8.654;2023-04-22T07:43:49;95055.25;;;13.90;69.54
44297;BME280;51842;47.450;8.654;2023-04-22T07:46:15;95050.22;;;14.02;68.48
44297;BME280;51842;47.450;8.654;2023-04-22T07:48:40;95050.88;;;14.35;67.04
44297;BME280;51842;47.450;8.654;2023-04-22T07:51:07;95048.66;;;14.38;66.52
44297;BME280;51842;47.450;8.654;2023-04-22T07:53:32;95053.31;;;14.60;66.35
44297;BME280;51842;47.450;8.654;2023-04-22T07:56:01;95047.66;;;14.84;64.63
44297;BME280;51842;47.450;8.654;2023-04-22T07:58:27;95051.97;;;15.16;62.82
44297;BME280;51842;47.450;8.654;2023-04-22T08:00:52;95048.63;;;15.33;60.31
44297;BME280;51842;47.450;8.654;2023-04-22T08:03:18;95056.25;;;15.48;60.18
44297;BME280;51842;47.450;8.654;2023-04-22T08:05:44;95051.09;;;15.52;59.91
44297;BME280;51842;47.450;8.654;2023-04-22T08:08:10;95056.97;;;15.62;57.22
44297;BME280;51842;47.450;8.654;2023-04-22T08:10:35;95064.06;;;15.58;58.16
44297;BME280;51842;47.450;8.654;2023-04-22T08:13:01;95061.53;;;15.84;59.14
44297;BME280;51842;47.450;8.654;2023-04-22T08:15:27;95068.41;;;16.08;59.67
44297;BME280;51842;47.450;8.654;2023-04-22T08:17:53;95061.47;;;16.15;57.51
44297;BME280;51842;47.450;8.654;2023-04-22T08:20:18;95064.81;;;16.21;57.65
44297;BME280;51842;47.450;8.654;2023-04-22T08:22:44;95061.84;;;16.57;56.72
44297;BME280;51842;47.450;8.654;2023-04-22T08:25:11;95056.69;;;16.78;56.48
44297;BME280;51842;47.450;8.654;2023-04-22T08:27:37;95056.69;;;16.96;54.96
44297;BME280;51842;47.450;8.654;2023-04-22T08:30:05;95053.50;;;17.20;55.13
44297;BME280;51842;47.450;8.654;2023-04-22T08:32:31;95055.06;;;17.29;54.02
44297;BME280;51842;47.450;8.654;2023-04-22T08:34:57;95052.06;;;17.31;54.38
44297;BME280;51842;47.450;8.654;2023-04-22T08:37:24;95049.66;;;17.47;53.07
44297;BME280;51842;47.450;8.654;2023-04-22T08:39:50;95036.31;;;17.59;53.24
44297;BME280;51842;47.450;8.654;2023-04-22T08:42:19;95042.81;;;18.05;52.16
44297;BME280;51842;47.450;8.654;2023-04-22T08:44:45;95037.16;;;18.48;49.71
44297;BME280;51842;47.450;8.654;2023-04-22T08:47:14;95043.50;;;18.73;49.86
44297;BME280;51842;47.450;8.654;2023-04-22T08:49:42;95046.13;;;19.03;49.06
44297;BME280;51842;47.450;8.654;2023-04-22T08:52:08;95048.88;;;19.15;47.30
44297;BME280;51842;47.450;8.654;2023-04-22T08:54:36;95057.53;;;19.09;46.94
44297;BME280;51842;47.450;8.654;2023-04-22T08:57:05;95051.00;;;19.10;47.35
44297;BME280;51842;47.450;8.654;2023-04-22T08:59:33;95058.31;;;19.09;47.15
44297;BME280;51842;47.450;8.654;2023-04-22T09:02:02;95051.47;;;18.91;47.22
44297;BME280;51842;47.450;8.654;2023-04-22T09:04:29;95046.53;;;19.26;47.15
44297;BME280;51842;47.450;8.654;2023-04-22T09:06:55;95036.41;;;19.56;46.34
44297;BME280;51842;47.450;8.654;2023-04-22T09:09:21;95035.72;;;19.59;46.67
44297;BME280;51842;47.450;8.654;2023-04-22T09:11:48;95030.34;;;19.59;47.99
44297;BME280;51842;47.450;8.654;2023-04-22T09:14:15;95020.38;;;19.97;46.19
44297;BME280;51842;47.450;8.654;2023-04-22T09:16:47;95019.72;;;20.12;44.64
44297;BME280;51842;47.450;8.654;2023-04-22T09:19:14;95022.25;;;20.58;44.52
44297;BME280;51842;47.450;8.654;2023-04-22T09:21:41;95021.69;;;20.64;44.08
44297;BME280;51842;47.450;8.654;2023-04-22T09:24:09;95019.16;;;20.71;42.45
44297;BME280;51842;47.450;8.654;2023-04-22T09:26:40;95013.38;;;20.85;43.92
44297;BME280;51842;47.450;8.654;2023-04-22T09:29:12;95017.63;;;20.98;43.75
44297;BME280;51842;47.450;8.654;2023-04-22T09:31:38;95010.28;;;20.99;42.36
44297;BME280;51842;47.450;8.654;2023-04-22T09:34:05;95016.19;;;21.17;41.64
44297;BME280;51842;47.450;8.654;2023-04-22T09:36:32;95006.00;;;20.98;41.74
44297;BME280;51842;47.450;8.654;2023-04-22T09:39:06;95005.09;;;21.06;40.78
44297;BME280;51842;47.450;8.654;2023-04-22T09:41:38;95001.59;;;21.21;40.70
44297;BME280;51842;47.450;8.654;2023-04-22T09:44:14;95000.91;;;21.24;41.28
44297;BME280;51842;47.450;8.654;2023-04-22T09:46:44;94995.38;;;21.49;40.29
44297;BME280;51842;47.450;8.654;2023-04-22T09:49:15;94986.22;;;21.38;39.80
44297;BME280;51842;47.450;8.654;2023-04-22T09:51:41;94983.59;;;21.41;38.81
44297;BME280;51842;47.450;8.654;2023-04-22T09:54:08;94986.47;;;21.48;38.69
44297;BME280;51842;47.450;8.654;2023-04-22T09:56:51;94991.38;;;21.75;38.72
44297;BME280;51842;47.450;8.654;2023-04-22T09:59:24;94996.28;;;22.16;38.28
44297;BME280;51842;47.450;8.654;2023-04-22T10:01:59;95004.91;;;22.38;36.80
44297;BME280;51842;47.450;8.654;2023-04-22T10:04:28;94999.97;;;22.59;35.36
44297;BME280;51842;47.450;8.654;2023-04-22T10:06:54;94995.31;;;22.60;35.62
44297;BME280;51842;47.450;8.654;2023-04-22T10:09:23;94992.47;;;22.72;36.60
44297;BME280;51842;47.450;8.654;2023-04-22T10:11:52;94989.75;;;22.92;36.38
44297;BME280;51842;47.450;8.654;2023-04-22T10:14:21;94976.00;;;23.00;35.23
44297;BME280;51842;47.450;8.654;2023-04-22T10:16:51;94977.09;;;23.38;34.88
44297;BME280;51842;47.450;8.654;2023-04-22T10:19:21;94983.53;;;23.53;33.34
44297;BME280;51842;47.450;8.654;2023-04-22T10:21:54;94991.25;;;23.70;33.94
44297;BME280;51842;47.450;8.654;2023-04-22T10:24:21;94988.41;;;23.44;33.30
44297;BME280;51842;47.450;8.654;2023-04-22T10:26:58;94991.69;;;23.53;33.30
44297;BME280;51842;47.450;8.654;2023-04-22T10:29:34;94990.09;;;23.94;33.37
44297;BME280;51842;47.450;8.654;2023-04-22T10:34:48;94975.03;;;24.54;32.40
44297;BME280;51842;47.450;8.654;2023-04-22T10:37:18;94977.19;;;24.67;31.93
44297;BME280;51842;47.450;8.654;2023-04-22T10:42:31;94978.19;;;24.86;30.92
44297;BME280;51842;47.450;8.654;2023-04-22T10:45:02;94973.16;;;24.58;32.01
44297;BME280;51842;47.450;8.654;2023-04-22T10:47:34;94966.97;;;24.61;31.38
44297;BME280;51842;47.450;8.654;2023-04-22T10:50:24;94958.03;;;24.94;31.50
44297;BME280;51842;47.450;8.654;2023-04-22T10:52:59;94955.09;;;24.73;31.99
44297;BME280;51842;47.450;8.654;2023-04-22T10:55:51;94953.44;;;24.98;29.16
44297;BME280;51842;47.450;8.654;2023-04-22T10:58:22;94956.25;;;25.09;28.79
44297;BME280;51842;47.450;8.654;2023-04-22T11:00:52;94951.72;;;25.17;29.48
44297;BME280;51842;47.450;8.654;2023-04-22T11:03:27;94970.06;;;25.20;30.12
44297;BME280;51842;47.450;8.654;2023-04-22T11:06:18;94957.97;;;24.87;31.50
44297;BME280;51842;47.450;8.654;2023-04-22T11:08:48;94962.00;;;25.00;31.48
44297;BME280;51842;47.450;8.654;2023-04-22T11:11:17;94965.28;;;25.13;31.35
44297;BME280;51842;47.450;8.654;2023-04-22T11:13:43;94964.94;;;25.55;32.19
44297;BME280;51842;47.450;8.654;2023-04-22T11:16:10;94962.03;;;25.78;31.60
44297;BME280;51842;47.450;8.654;2023-04-22T11:18:37;94969.72;;;25.66;32.30
44297;BME280;51842;47.450;8.654;2023-04-22T11:21:05;94971.72;;;25.76;32.91
44297;BME280;51842;47.450;8.654;2023-04-22T11:23:31;94975.06;;;25.96;32.13
44297;BME280;51842;47.450;8.654;2023-04-22T11:26:02;94982.38;;;25.84;31.36
44297;BME280;51842;47.450;8.654;2023-04-22T11:28:29;94977.81;;;25.99;31.45
44297;BME280;51842;47.450;8.654;2023-04-22T11:31:07;94980.75;;;25.80;31.22
44297;BME280;51842;47.450;8.654;2023-04-22T11:33:35;94979.78;;;26.02;32.04
44297;BME280;51842;47.450;8.654;2023-04-22T11:36:04;94977.59;;;26.26;31.08
44297;BME280;51842;47.450;8.654;2023-04-22T11:38:30;94971.22;;;25.59;30.53
44297;BME280;51842;47.450;8.654;2023-04-22T11:40:56;94973.19;;;25.62;32.06
44297;BME280;51842;47.450;8.654;2023-04-22T11:43:23;94984.53;;;26.13;32.80
44297;BME280;51842;47.450;8.654;2023-04-22T11:45:49;94977.72;;;26.44;33.38
44297;BME280;51842;47.450;8.654;2023-04-22T11:48:15;94982.53;;;26.61;31.77
44297;BME280;51842;47.450;8.654;2023-04-22T11:50:42;94976.34;;;26.68;32.59
44297;BME280;51842;47.450;8.654;2023-04-22T11:53:17;94975.63;;;26.89;31.37
44297;BME280;51842;47.450;8.654;2023-04-22T11:55:45;94981.16;;;26.99;29.66
44297;BME280;51842;47.450;8.654;2023-04-22T11:58:16;94975.66;;;26.92;29.35
44297;BME280;51842;47.450;8.654;2023-04-22T12:00:49;94976.78;;;26.84;29.13
44297;BME280;51842;47.450;8.654;2023-04-22T12:03:16;94979.63;;;27.13;29.86
44297;BME280;51842;47.450;8.654;2023-04-22T12:05:56;94974.34;;;26.58;30.93
44297;BME280;51842;47.450;8.654;2023-04-22T12:08:35;94969.41;;;26.92;30.30
44297;BME280;51842;47.450;8.654;2023-04-22T12:11:05;94975.09;;;27.45;29.35
44297;BME280;51842;47.450;8.654;2023-04-22T12:13:40;94972.94;;;26.92;29.67
44297;BME280;51842;47.450;8.654;2023-04-22T12:16:12;94973.50;;;26.50;30.39
44297;BME280;51842;47.450;8.654;2023-04-22T12:18:47;94971.72;;;26.83;30.37
44297;BME280;51842;47.450;8.654;2023-04-22T12:21:17;94976.13;;;27.09;30.52
44297;BME280;51842;47.450;8.654;2023-04-22T12:26:20;94981.06;;;26.82;31.26
44297;BME280;51842;47.450;8.654;2023-04-22T12:28:46;94972.53;;;26.94;30.09
44297;BME280;51842;47.450;8.654;2023-04-22T12:31:14;94983.69;;;26.60;30.39
44297;BME280;51842;47.450;8.654;2023-04-22T12:33:40;94976.69;;;26.63;30.50
44297;BME280;51842;47.450;8.654;2023-04-22T12:36:07;94974.50;;;26.24;31.00
44297;BME280;51842;47.450;8.654;2023-04-22T12:38:33;94973.59;;;26.09;31.46
44297;BME280;51842;47.450;8.654;2023-04-22T12:41:00;94968.47;;;25.59;30.76
44297;BME280;51842;47.450;8.654;2023-04-22T12:43:26;94967.25;;;25.16;32.12
44297;BME280;51842;47.450;8.654;2023-04-22T12:45:52;94970.97;;;24.67;32.12
44297;BME280;51842;47.450;8.654;2023-04-22T12:48:18;94970.50;;;24.61;33.16
44297;BME280;51842;47.450;8.654;2023-04-22T12:50:45;94957.94;;;24.53;31.99
44297;BME280;51842;47.450;8.654;2023-04-22T12:53:11;94960.41;;;24.35;32.33
44297;BME280;51842;47.450;8.654;2023-04-22T12:55:37;94954.09;;;24.31;31.61
44297;BME280;51842;47.450;8.654;2023-04-22T12:58:03;94951.91;;;24.40;32.50
44297;BME280;51842;47.450;8.654;2023-04-22T13:00:29;94948.94;;;24.22;31.56
44297;BME280;51842;47.450;8.654;2023-04-22T13:02:55;94944.31;;;24.00;32.40
44297;BME280;51842;47.450;8.654;2023-04-22T13:05:21;94950.50;;;24.23;32.47
44297;BME280;51842;47.450;8.654;2023-04-22T13:07:47;94953.78;;;24.36;33.27
44297;BME280;51842;47.450;8.654;2023-04-22T13:10:15;94955.63;;;24.55;31.62